Time;durP1;ratioP1;P1;durP2;ratioP2;P2;SDS_P1;SDS_P2;PMS_P1;PMS_P2;Temp;Humidity;BMP_temperature;BMP_pressure;BME280_temperature;BME280_humidity;BME280_pressure;Samples;Min_cycle;Max_cycle;Signal;HPM_P1;HPM_P2
2023/04/30 00:00:01;;;;;;;47.25;30.80;;;;;;;15.83;100.00;100320.38;5014891;28;20029;-87
2023/04/30 00:05:50;;;;;;;45.15;30.17;;;;;;;15.70;100.00;100314.16;5010266;28;20103;-86
2023/04/30 00:08:16;;;;;;;52.45;30.42;;;;;;;15.66;100.00;100318.25;5031690;28;20022;-87
2023/04/30 00:10:42;;;;;;;50.00;30.63;;;;;;;15.66;100.00;100312.91;5016871;28;20115;-84
2023/04/30 00:13:09;;;;;;;45.65;31.23;;;;;;;15.69;100.00;100308.00;5036609;28;20018;-86
2023/04/30 00:15:35;;;;;;;48.45;30.70;;;;;;;15.68;100.00;100316.19;5025930;28;20097;-87
2023/04/30 00:18:00;;;;;;;51.72;32.08;;;;;;;15.66;100.00;100313.75;5015807;28;20046;-86
2023/04/30 00:20:26;;;;;;;45.90;31.27;;;;;;;15.72;100.00;100312.94;4997726;28;20042;-85
2023/04/30 00:22:51;;;;;;;42.85;30.13;;;;;;;15.85;100.00;100312.97;4996533;28;20073;-87
2023/04/30 00:25:17;;;;;;;47.05;30.30;;;;;;;16.04;100.00;100316.75;5014335;28;20407;-87
2023/04/30 00:27:42;;;;;;;46.38;31.27;;;;;;;16.26;100.00;100314.72;5014382;28;20046;-86
2023/04/30 00:30:08;;;;;;;48.72;31.58;;;;;;;16.15;100.00;100308.09;4996674;28;20044;-88
2023/04/30 00:32:34;;;;;;;53.17;33.58;;;;;;;15.94;100.00;100298.41;4996393;28;20041;-88
2023/04/30 00:34:59;;;;;;;55.50;34.10;;;;;;;15.91;100.00;100300.66;4996255;28;20038;-89
2023/04/30 00:37:25;;;;;;;53.28;32.25;;;;;;;15.99;100.00;100295.13;5014429;28;20042;-87
2023/04/30 00:39:50;;;;;;;47.83;33.83;;;;;;;16.06;100.00;100287.13;4996261;28;20117;-87
2023/04/30 00:42:16;;;;;;;51.20;33.70;;;;;;;15.91;100.00;100290.78;5014114;28;20034;-90
2023/04/30 00:44:41;;;;;;;47.75;34.15;;;;;;;16.03;100.00;100283.84;4996435;28;20096;-89
2023/04/30 00:47:07;;;;;;;49.13;32.42;;;;;;;16.06;100.00;100287.13;5013832;28;20081;-87
2023/04/30 00:49:32;;;;;;;49.65;34.67;;;;;;;16.24;100.00;100282.81;4996017;28;20041;-88
2023/04/30 00:51:58;;;;;;;46.40;32.10;;;;;;;16.21;100.00;100282.41;5013904;28;20087;-88
2023/04/30 00:54:24;;;;;;;51.92;32.45;;;;;;;16.18;100.00;100290.81;4996476;28;20078;-87
2023/04/30 00:56:50;;;;;;;45.53;32.03;;;;;;;16.11;100.00;100285.47;5014157;28;20045;-86
2023/04/30 00:59:16;;;;;;;51.75;34.55;;;;;;;16.27;100.00;100289.63;5013869;28;20029;-87
2023/04/30 01:01:42;;;;;;;54.20;33.00;;;;;;;16.29;100.00;100284.88;4996338;28;20046;-88
2023/04/30 01:04:08;;;;;;;46.35;32.58;;;;;;;16.25;100.00;100287.13;5014530;28;20045;-88
2023/04/30 01:06:33;;;;;;;50.65;32.47;;;;;;;16.21;100.00;100285.06;5015917;28;20175;-87
2023/04/30 01:09:00;;;;;;;52.90;31.88;;;;;;;16.16;100.00;100287.53;5014370;28;20088;-85
2023/04/30 01:11:39;;;;;;;53.53;32.30;;;;;;;16.11;100.00;100279.31;4996290;28;20034;-88
2023/04/30 01:14:29;;;;;;;51.38;33.38;;;;;;;15.94;100.00;100279.69;5013708;28;20073;-86
2023/04/30 01:17:01;;;;;;;49.20;32.50;;;;;;;15.83;100.00;100285.63;4996055;28;20056;-88
2023/04/30 01:19:29;;;;;;;52.85;32.88;;;;;;;15.77;100.00;100283.78;4983867;28;20057;-88
2023/04/30 01:22:00;;;;;;;46.03;32.33;;;;;;;15.83;100.00;100277.63;5003101;28;20045;-87
2023/04/30 01:24:37;;;;;;;49.28;30.88;;;;;;;15.76;100.00;100282.13;5018235;28;20905;-88
2023/04/30 01:27:13;;;;;;;52.92;34.03;;;;;;;15.70;100.00;100293.63;5017515;28;20044;-86
2023/04/30 01:29:41;;;;;;;52.60;33.42;;;;;;;15.74;100.00;100297.50;4999815;28;20040;-86
2023/04/30 01:32:06;;;;;;;51.25;33.00;;;;;;;15.61;100.00;100294.78;5017453;28;20117;-87
2023/04/30 01:34:31;;;;;;;48.85;33.38;;;;;;;15.58;100.00;100295.19;5017637;28;20121;-88
2023/04/30 01:37:07;;;;;;;52.53;32.42;;;;;;;15.73;100.00;100293.22;5000027;28;20395;-89
2023/04/30 01:39:33;;;;;;;52.70;32.42;;;;;;;15.84;100.00;100305.97;4983628;28;20175;-87
2023/04/30 01:42:19;;;;;;;45.80;31.83;;;;;;;15.64;100.00;100309.63;4999589;28;20041;-88
2023/04/30 01:44:50;;;;;;;46.88;32.60;;;;;;;15.64;100.00;100299.78;5005374;28;20506;-88
2023/04/30 01:47:53;;;;;;;50.90;33.35;;;;;;;15.46;100.00;100302.13;4999728;28;20038;-87
2023/04/30 01:50:38;;;;;;;32.90;23.73;;;;;;;15.41;100.00;100293.88;4993956;28;20581;-87
2023/04/30 01:53:08;;;;;;;51.42;34.22;;;;;;;15.34;100.00;100298.38;5016652;28;20052;-87
2023/04/30 01:55:48;;;;;;;52.08;33.58;;;;;;;15.54;100.00;100298.50;4982962;28;20033;-86
2023/04/30 01:58:15;;;;;;;51.78;33.35;;;;;;;15.45;100.00;100297.78;4999200;28;20049;-88
2023/04/30 02:00:41;;;;;;;51.60;33.63;;;;;;;15.35;100.00;100300.81;4998977;28;20041;-87
2023/04/30 02:03:07;;;;;;;53.38;35.65;;;;;;;15.29;100.00;100300.78;5016440;28;20030;-87
2023/04/30 02:05:32;;;;;;;56.05;34.72;;;;;;;15.13;100.00;100307.28;5016506;28;20045;-87
2023/04/30 02:07:59;;;;;;;52.63;33.40;;;;;;;15.28;100.00;100299.97;5016771;28;20038;-87
2023/04/30 02:10:26;;;;;;;48.85;32.67;;;;;;;15.47;100.00;100298.44;4999042;28;20044;-88
2023/04/30 02:12:52;;;;;;;54.25;34.83;;;;;;;15.23;100.00;100297.09;5016533;28;20042;-88
2023/04/30 02:15:17;;;;;;;51.60;32.40;;;;;;;15.25;100.00;100296.88;4998758;28;20034;-88
2023/04/30 02:17:43;;;;;;;53.92;34.13;;;;;;;15.24;100.00;100297.91;5016536;28;20123;-87
2023/04/30 02:20:10;;;;;;;51.28;32.38;;;;;;;15.30;100.00;100291.78;4998284;28;20389;-85
2023/04/30 02:22:36;;;;;;;50.47;32.00;;;;;;;15.35;100.00;100294.66;5015700;28;20034;-88
2023/04/30 02:25:02;;;;;;;50.75;32.90;;;;;;;15.34;100.00;100301.03;4998579;28;20383;-87
2023/04/30 02:27:30;;;;;;;56.78;31.95;;;;;;;15.36;100.00;100291.81;5016255;28;20490;-87
2023/04/30 02:29:55;;;;;;;45.47;31.13;;;;;;;15.27;100.00;100300.19;5016538;28;20034;-86
2023/04/30 02:32:22;;;;;;;50.30;31.25;;;;;;;15.37;100.00;100295.31;4998583;28;20498;-87
2023/04/30 02:34:48;;;;;;;50.53;29.60;;;;;;;15.23;100.00;100299.75;5016251;28;20037;-86
2023/04/30 02:37:14;;;;;;;53.65;31.50;;;;;;;15.18;100.00;100306.72;4998973;28;20096;-87
2023/04/30 02:39:42;;;;;;;47.90;29.17;;;;;;;15.28;100.00;100299.97;4998322;28;20050;-86
2023/04/30 02:42:08;;;;;;;44.30;30.40;;;;;;;15.13;100.00;100301.13;5015911;28;20506;-88
2023/04/30 02:44:34;;;;;;;51.05;30.80;;;;;;;15.00;100.00;100302.69;5015802;28;20541;-89
2023/04/30 02:47:01;;;;;;;48.63;30.55;;;;;;;14.91;100.00;100314.53;5016235;28;20041;-87
2023/04/30 02:49:27;;;;;;;52.00;31.90;;;;;;;14.94;100.00;100308.84;5015570;28;20550;-87
2023/04/30 02:51:53;;;;;;;50.63;32.55;;;;;;;14.96;100.00;100316.63;5015523;28;20026;-86
2023/04/30 02:54:18;;;;;;;51.75;32.50;;;;;;;15.02;100.00;100314.00;5016351;28;20084;-89
2023/04/30 02:56:46;;;;;;;52.90;31.15;;;;;;;14.86;100.00;100311.63;5037925;28;20113;-86
2023/04/30 02:59:12;;;;;;;49.45;32.20;;;;;;;14.85;100.00;100311.81;5022109;28;20041;-85
2023/04/30 03:01:37;;;;;;;59.95;34.45;;;;;;;14.70;100.00;100311.94;5022479;28;20088;-87
2023/04/30 03:04:03;;;;;;;55.38;32.92;;;;;;;14.45;100.00;100303.50;5014403;28;20091;-88
2023/04/30 03:06:33;;;;;;;52.55;34.80;;;;;;;14.49;100.00;100315.44;4998361;28;20037;-87
2023/04/30 03:08:59;;;;;;;60.97;34.85;;;;;;;14.40;100.00;100318.44;5015673;28;20494;-89
2023/04/30 03:11:25;;;;;;;57.95;36.83;;;;;;;14.37;100.00;100313.50;4997987;28;20071;-86
2023/04/30 03:13:53;;;;;;;65.47;36.55;;;;;;;14.18;100.00;100316.78;5015829;28;20442;-88
2023/04/30 03:16:22;;;;;;;65.47;38.55;;;;;;;14.24;100.00;100308.03;4997656;28;20030;-87
2023/04/30 03:18:48;;;;;;;60.05;36.88;;;;;;;14.28;100.00;100306.63;5015845;28;20377;-86
2023/04/30 03:21:14;;;;;;;65.80;40.00;;;;;;;14.11;100.00;100313.22;4997983;28;20515;-87
2023/04/30 03:23:39;;;;;;;61.60;38.22;;;;;;;14.17;100.00;100312.47;5014983;28;20179;-88
2023/04/30 03:26:05;;;;;;;60.67;39.85;;;;;;;14.02;100.00;100317.03;4997588;28;20026;-87
2023/04/30 03:28:31;;;;;;;66.50;39.13;;;;;;;14.01;100.00;100304.72;5015254;28;20042;-88
2023/04/30 03:30:58;;;;;;;64.63;38.53;;;;;;;14.11;100.00;100321.22;5015527;28;20037;-87
2023/04/30 03:33:23;;;;;;;66.07;39.50;;;;;;;14.05;100.00;100312.16;5015024;28;20034;-90
2023/04/30 03:35:50;;;;;;;61.63;39.00;;;;;;;14.10;100.00;100304.41;5014909;28;20056;-88
2023/04/30 03:38:15;;;;;;;63.13;38.63;;;;;;;14.08;100.00;100311.75;4997262;28;20052;-88
2023/04/30 03:40:41;;;;;;;65.25;38.78;;;;;;;13.99;100.00;100310.22;5014863;28;20108;-87
2023/04/30 03:43:06;;;;;;;63.42;38.45;;;;;;;13.93;100.00;100311.81;4995905;28;20407;-87
2023/04/30 03:45:32;;;;;;;71.13;41.20;;;;;;;13.91;100.00;100316.50;4997139;28;20042;-87
2023/04/30 03:47:58;;;;;;;69.43;41.35;;;;;;;13.77;100.00;100319.19;5014878;28;20046;-87
2023/04/30 03:50:23;;;;;;;78.25;43.10;;;;;;;13.82;100.00;100316.81;5014568;28;20069;-88
2023/04/30 03:52:49;;;;;;;73.72;41.05;;;;;;;13.83;100.00;100307.78;4997087;28;20053;-89
2023/04/30 03:55:15;;;;;;;66.13;41.00;;;;;;;13.80;100.00;100317.00;4996956;28;20029;-89
2023/04/30 03:57:41;;;;;;;70.47;42.72;;;;;;;13.70;100.00;100319.13;4996838;28;20133;-88
2023/04/30 04:00:09;;;;;;;72.18;42.75;;;;;;;13.67;100.00;100313.34;4996858;28;20491;-90
2023/04/30 04:02:45;;;;;;;80.68;44.00;;;;;;;13.60;100.00;100321.25;4996699;28;20033;-88
2023/04/30 04:05:11;;;;;;;72.53;43.70;;;;;;;13.78;100.00;100332.34;4997487;28;20487;-88
2023/04/30 04:07:37;;;;;;;69.80;41.90;;;;;;;13.84;100.00;100331.59;4996794;28;20029;-87
2023/04/30 04:10:02;;;;;;;70.85;41.08;;;;;;;13.71;100.00;100331.44;4996761;28;20077;-87
2023/04/30 04:12:29;;;;;;;78.15;43.33;;;;;;;13.80;100.00;100340.97;4996686;28;20109;-86
2023/04/30 04:14:55;;;;;;;73.53;42.97;;;;;;;13.87;100.00;100339.22;4996879;28;20450;-86
2023/04/30 04:17:21;;;;;;;88.32;46.65;;;;;;;13.69;100.00;100332.63;4996430;28;20038;-85
2023/04/30 04:19:46;;;;;;;76.32;43.17;;;;;;;13.70;100.00;100331.63;4996121;28;20045;-89
2023/04/30 04:22:12;;;;;;;90.25;45.65;;;;;;;13.60;100.00;100326.59;4980448;28;20034;-88
2023/04/30 04:24:38;;;;;;;83.25;48.00;;;;;;;13.61;100.00;100332.75;4996448;28;20091;-87
2023/04/30 04:27:04;;;;;;;92.25;51.45;;;;;;;13.51;100.00;100335.69;4996469;28;20510;-87
2023/04/30 04:29:31;;;;;;;95.90;50.35;;;;;;;13.60;100.00;100339.06;4996243;28;20431;-89
2023/04/30 04:31:59;;;;;;;90.60;49.22;;;;;;;13.46;100.00;100338.06;4997094;28;20030;-88
2023/04/30 04:34:25;;;;;;;99.47;55.55;;;;;;;13.40;100.00;100344.97;4997432;28;20498;-88
2023/04/30 04:36:51;;;;;;;98.55;52.55;;;;;;;13.44;100.00;100342.75;5015753;28;20041;-88
2023/04/30 04:39:17;;;;;;;101.75;53.20;;;;;;;13.49;100.00;100347.53;5001510;28;20507;-83
2023/04/30 04:41:45;;;;;;;105.63;51.75;;;;;;;13.57;100.00;100348.25;5015942;28;20077;-87
2023/04/30 04:44:11;;;;;;;89.47;49.92;;;;;;;13.65;100.00;100353.50;5036459;28;20061;-87
2023/04/30 04:46:37;;;;;;;88.68;49.10;;;;;;;13.66;100.00;100355.13;5001382;28;20014;-89
2023/04/30 04:49:03;;;;;;;101.90;51.20;;;;;;;13.60;100.00;100361.19;5005010;28;20064;-86
2023/04/30 04:51:29;;;;;;;100.13;50.75;;;;;;;13.70;100.00;100363.56;5001174;28;20483;-87
2023/04/30 04:53:54;;;;;;;99.32;52.10;;;;;;;13.73;100.00;100366.69;5014970;28;20034;-88
2023/04/30 04:56:20;;;;;;;92.32;49.70;;;;;;;13.79;100.00;100359.78;4997452;28;20033;-87
2023/04/30 04:58:46;;;;;;;86.03;47.78;;;;;;;14.06;100.00;100366.25;4997538;28;20094;-86
2023/04/30 05:01:12;;;;;;;101.55;50.25;;;;;;;13.93;100.00;100359.75;4996990;28;20038;-87
2023/04/30 05:03:39;;;;;;;105.38;49.58;;;;;;;14.06;100.00;100360.91;4996732;28;20033;-87
2023/04/30 05:06:06;;;;;;;105.78;52.45;;;;;;;14.14;100.00;100368.81;4996189;28;20046;-85
2023/04/30 05:08:31;;;;;;;94.40;49.53;;;;;;;14.27;100.00;100367.09;4996676;28;20033;-85
2023/04/30 05:10:57;;;;;;;99.03;50.63;;;;;;;14.29;100.00;100374.91;5018850;28;20069;-88
2023/04/30 05:13:23;;;;;;;86.68;46.30;;;;;;;14.34;100.00;100372.53;5014871;28;20057;-85
2023/04/30 05:15:52;;;;;;;92.80;49.72;;;;;;;14.15;100.00;100373.13;4997950;28;20120;-88
2023/04/30 05:18:19;;;;;;;90.18;46.83;;;;;;;14.09;100.00;100379.19;4997146;28;20034;-87
2023/04/30 05:20:44;;;;;;;91.03;47.33;;;;;;;13.92;100.00;100376.75;5015250;28;20117;-88
2023/04/30 05:23:10;;;;;;;94.80;49.58;;;;;;;13.73;100.00;100377.34;5014986;28;20029;-87
2023/04/30 05:25:36;;;;;;;90.45;48.75;;;;;;;13.67;100.00;100379.94;4996696;28;20029;-87
2023/04/30 05:28:02;;;;;;;83.72;48.13;;;;;;;13.52;100.00;100371.97;4998089;28;20030;-86
2023/04/30 05:30:31;;;;;;;86.03;49.50;;;;;;;13.69;100.00;100386.72;5002536;28;20034;-84
2023/04/30 05:32:57;;;;;;;90.13;50.70;;;;;;;13.58;100.00;100386.38;5034948;28;20094;-86
2023/04/30 05:35:22;;;;;;;89.30;50.63;;;;;;;13.58;100.00;100379.22;5035963;28;20038;-86
2023/04/30 05:37:48;;;;;;;99.95;54.47;;;;;;;13.47;100.00;100387.66;5035798;28;20025;-86
2023/04/30 05:40:14;;;;;;;109.22;54.28;;;;;;;13.50;100.00;100389.94;5036449;28;20018;-87
2023/04/30 05:46:26;;;;;;;111.25;55.50;;;;;;;13.56;100.00;100383.88;5031013;28;20045;-89
2023/04/30 05:48:52;;;;;;;105.20;54.50;;;;;;;13.52;100.00;100385.28;5036991;28;20026;-87
2023/04/30 05:54:46;;;;;;;103.55;55.03;;;;;;;13.52;100.00;100379.97;5034205;28;20562;-91
2023/04/30 05:57:12;;;;;;;106.38;55.33;;;;;;;13.57;100.00;100396.19;4999744;28;20060;-90
2023/04/30 05:59:38;;;;;;;110.18;54.53;;;;;;;13.46;100.00;100386.81;4998894;28;20034;-89
2023/04/30 06:02:03;;;;;;;103.13;54.53;;;;;;;13.40;100.00;100389.41;5015614;28;20034;-87
2023/04/30 06:04:29;;;;;;;103.95;52.65;;;;;;;13.37;100.00;100392.41;5016989;28;20491;-88
2023/04/30 06:06:55;;;;;;;103.35;52.53;;;;;;;13.54;100.00;100385.91;5000491;28;20045;-88
2023/04/30 06:09:21;;;;;;;99.13;53.60;;;;;;;13.36;100.00;100394.25;4983672;28;20030;-90
2023/04/30 06:11:49;;;;;;;103.53;51.80;;;;;;;13.35;100.00;100389.13;5001710;28;20044;-92
2023/04/30 06:14:18;;;;;;;97.05;51.95;;;;;;;13.59;100.00;100396.81;5001652;28;20053;-90
2023/04/30 06:16:45;;;;;;;92.57;51.33;;;;;;;13.62;100.00;100393.78;5001721;28;20069;-90
2023/04/30 06:19:11;;;;;;;100.50;51.55;;;;;;;13.69;100.00;100399.19;5018969;28;20488;-90
2023/04/30 06:21:38;;;;;;;82.15;46.33;;;;;;;13.80;100.00;100388.91;5018442;28;20034;-90
2023/04/30 06:24:04;;;;;;;83.28;45.83;;;;;;;14.07;100.00;100394.56;5004698;28;20377;-88
2023/04/30 06:26:32;;;;;;;82.75;43.75;;;;;;;14.36;100.00;100394.50;5026216;28;20036;-89
2023/04/30 06:28:58;;;;;;;81.63;42.88;;;;;;;14.66;100.00;100395.19;4998685;28;20034;-88
2023/04/30 06:31:23;;;;;;;74.57;41.05;;;;;;;14.73;100.00;100399.56;4999400;28;20376;-89
2023/04/30 06:33:49;;;;;;;79.30;40.03;;;;;;;14.71;100.00;100400.78;5016470;28;20038;-88
2023/04/30 06:36:18;;;;;;;71.88;41.30;;;;;;;14.69;100.00;100400.97;5017912;28;20038;-88
2023/04/30 06:38:45;;;;;;;66.45;38.70;;;;;;;14.81;100.00;100403.97;5021721;28;20057;-89
2023/04/30 06:41:15;;;;;;;65.28;37.42;;;;;;;14.87;100.00;100405.84;5025265;28;20038;-89
2023/04/30 06:43:41;;;;;;;67.10;37.30;;;;;;;14.96;100.00;100418.03;5019531;28;20048;-87
2023/04/30 06:46:07;;;;;;;79.22;39.90;;;;;;;14.95;100.00;100411.88;5001778;28;20040;-87
2023/04/30 06:48:33;;;;;;;63.70;37.72;;;;;;;15.18;100.00;100411.63;5003547;28;20117;-89
2023/04/30 06:50:58;;;;;;;64.97;36.53;;;;;;;15.29;100.00;100416.44;5021835;28;20443;-88
2023/04/30 06:53:24;;;;;;;61.80;33.35;;;;;;;15.66;100.00;100412.59;5024170;28;20030;-89
2023/04/30 06:55:51;;;;;;;60.53;32.35;;;;;;;15.80;100.00;100417.00;5000940;28;20090;-90
2023/04/30 06:58:17;;;;;;;56.00;32.30;;;;;;;15.64;100.00;100411.97;5021171;28;20168;-87
2023/04/30 07:00:43;;;;;;;56.92;31.48;;;;;;;15.31;100.00;100421.59;5021747;28;20045;-90
2023/04/30 07:03:08;;;;;;;63.97;34.90;;;;;;;15.31;100.00;100429.63;5007605;28;20042;-90
2023/04/30 07:05:37;;;;;;;59.20;33.20;;;;;;;15.59;100.00;100425.09;5009079;28;20562;-91
2023/04/30 07:08:03;;;;;;;62.22;33.33;;;;;;;15.67;100.00;100422.28;5007243;28;20053;-92
2023/04/30 07:10:30;;;;;;;62.28;34.25;;;;;;;15.61;100.00;100416.88;5027602;28;20060;-90
2023/04/30 07:12:56;;;;;;;53.70;33.63;;;;;;;15.90;100.00;100413.94;4987071;28;20034;-88
2023/04/30 07:15:22;;;;;;;57.50;33.80;;;;;;;15.92;100.00;100415.38;5020948;28;20117;-87
2023/04/30 07:17:47;;;;;;;56.30;33.28;;;;;;;15.84;100.00;100420.88;5004475;28;20042;-87
2023/04/30 07:20:16;;;;;;;61.25;34.08;;;;;;;16.47;100.00;100418.88;5005468;28;20037;-92
2023/04/30 07:22:44;;;;;;;64.13;34.38;;;;;;;17.03;100.00;100414.81;5001746;28;20022;-89
2023/04/30 07:25:11;;;;;;;55.28;32.25;;;;;;;17.03;100.00;100428.19;5018362;28;20034;-89
2023/04/30 07:27:37;;;;;;;53.88;32.47;;;;;;;16.88;100.00;100422.22;5001030;28;20479;-91
2023/04/30 07:30:04;;;;;;;52.65;30.77;;;;;;;16.88;100.00;100426.75;4987724;28;20066;-89
2023/04/30 07:32:29;;;;;;;54.65;30.98;;;;;;;16.85;100.00;100416.47;4999845;28;20068;-89
2023/04/30 07:34:57;;;;;;;46.10;28.15;;;;;;;17.11;100.00;100429.03;5019456;28;20033;-88
2023/04/30 07:37:23;;;;;;;41.33;26.17;;;;;;;17.56;100.00;100429.00;5004388;28;20084;-89
2023/04/30 07:39:48;;;;;;;43.85;24.58;;;;;;;17.81;100.00;100426.47;5004146;28;20034;-88
2023/04/30 07:42:14;;;;;;;44.78;24.80;;;;;;;17.76;100.00;100428.97;5022731;28;20050;-89
2023/04/30 07:44:40;;;;;;;50.17;27.70;;;;;;;17.87;100.00;100427.47;5019253;28;20088;-91
2023/04/30 07:47:06;;;;;;;50.20;26.30;;;;;;;17.75;100.00;100431.84;5020138;28;20098;-91
2023/04/30 07:49:32;;;;;;;42.63;25.98;;;;;;;17.52;100.00;100432.28;5003117;28;20464;-90
2023/04/30 07:51:59;;;;;;;48.88;26.55;;;;;;;18.04;100.00;100429.47;5022055;28;20034;-90
2023/04/30 07:54:25;;;;;;;44.90;26.55;;;;;;;18.40;100.00;100422.69;5021698;28;20042;-88
2023/04/30 07:56:50;;;;;;;40.70;25.17;;;;;;;18.22;100.00;100431.47;5018571;28;20029;-89
2023/04/30 07:59:23;;;;;;;40.03;24.50;;;;;;;18.34;100.00;100426.22;5022919;28;20045;-86
2023/04/30 08:01:51;;;;;;;38.25;23.33;;;;;;;18.57;100.00;100429.22;5023864;28;20045;-87
2023/04/30 08:04:24;;;;;;;35.90;21.63;;;;;;;18.28;100.00;100435.13;5004150;28;20049;-87
2023/04/30 08:06:50;;;;;;;37.28;23.55;;;;;;;17.72;100.00;100422.38;5010791;28;20046;-88
2023/04/30 08:09:16;;;;;;;41.10;23.52;;;;;;;17.72;100.00;100417.00;5010796;28;20038;-87
2023/04/30 08:11:51;;;;;;;39.33;22.13;;;;;;;17.99;100.00;100426.63;5004922;28;20045;-89
2023/04/30 08:14:20;;;;;;;36.33;22.15;;;;;;;18.50;100.00;100434.63;5007496;28;20041;-91
2023/04/30 08:16:49;;;;;;;34.15;19.90;;;;;;;18.75;100.00;100432.00;5005968;28;20046;-90
2023/04/30 08:19:17;;;;;;;39.53;20.40;;;;;;;18.53;100.00;100423.47;5007325;28;20033;-88
2023/04/30 08:21:43;;;;;;;34.60;19.50;;;;;;;18.98;100.00;100437.63;5023257;28;20052;-89
2023/04/30 08:24:08;;;;;;;40.05;19.77;;;;;;;18.40;100.00;100438.78;5004086;28;20042;-89
2023/04/30 08:26:34;;;;;;;34.92;19.15;;;;;;;18.23;100.00;100421.56;5021881;28;20053;-88
2023/04/30 08:28:59;;;;;;;31.63;19.20;;;;;;;18.56;100.00;100438.31;5020883;28;20080;-88
2023/04/30 08:31:25;;;;;;;28.40;18.15;;;;;;;19.28;100.00;100440.47;5020861;28;20074;-90
2023/04/30 08:33:51;;;;;;;28.73;17.77;;;;;;;19.16;100.00;100433.34;5006844;28;20128;-86
2023/04/30 08:36:16;;;;;;;28.55;17.48;;;;;;;18.70;100.00;100434.50;5018705;28;20029;-88
2023/04/30 08:38:42;;;;;;;24.73;16.95;;;;;;;18.84;100.00;100433.38;5037356;28;20038;-87
2023/04/30 08:41:12;;;;;;;34.63;18.42;;;;;;;18.74;100.00;100434.88;5036259;28;20062;-83
2023/04/30 08:43:39;;;;;;;27.55;17.40;;;;;;;18.77;100.00;100429.91;5024144;28;20133;-88
2023/04/30 08:46:53;;;;;;;28.35;17.35;;;;;;;18.47;100.00;100431.50;5017775;28;20054;-88
2023/04/30 08:49:20;;;;;;;35.40;18.38;;;;;;;18.59;100.00;100421.78;5016877;28;20053;-87
2023/04/30 08:51:46;;;;;;;36.38;19.48;;;;;;;18.69;100.00;100426.69;5019161;28;20060;-86
2023/04/30 08:54:13;;;;;;;37.33;19.95;;;;;;;18.62;100.00;100431.25;4998606;28;20034;-87
2023/04/30 08:56:39;;;;;;;33.90;19.88;;;;;;;18.47;100.00;100418.94;4998288;28;20076;-88
2023/04/30 08:59:06;;;;;;;31.83;20.02;;;;;;;18.58;100.00;100414.78;5016628;28;20040;-88
2023/04/30 09:01:33;;;;;;;32.47;18.77;;;;;;;18.63;100.00;100436.41;5015829;28;20076;-89
2023/04/30 09:04:01;;;;;;;33.83;19.85;;;;;;;18.71;100.00;100430.78;5017172;28;20456;-85
2023/04/30 09:06:27;;;;;;;33.28;20.92;;;;;;;18.61;100.00;100419.69;4985998;28;20033;-86
2023/04/30 09:08:53;;;;;;;42.78;21.40;;;;;;;18.54;100.00;100426.97;5025745;28;20042;-87
2023/04/30 09:11:27;;;;;;;34.40;19.88;;;;;;;19.13;100.00;100429.22;5024043;28;20017;-93
2023/04/30 09:14:02;;;;;;;37.88;19.58;;;;;;;19.60;100.00;100431.28;5026186;28;20096;-91
2023/04/30 09:16:44;;;;;;;32.20;19.17;;;;;;;19.78;100.00;100433.16;5027177;28;20038;-92
2023/04/30 09:19:25;;;;;;;34.57;19.83;;;;;;;19.75;100.00;100425.53;5027585;28;20065;-91
2023/04/30 09:21:51;;;;;;;31.90;18.92;;;;;;;19.66;100.00;100429.53;5009001;28;20308;-91
2023/04/30 09:24:18;;;;;;;30.17;18.48;;;;;;;19.38;100.00;100431.88;5016650;28;20133;-89
2023/04/30 09:26:46;;;;;;;25.63;16.92;;;;;;;19.69;100.00;100431.78;4976306;28;20109;-91
2023/04/30 09:29:21;;;;;;;30.45;14.88;;;;;;;20.10;100.00;100442.69;4994130;28;20057;-92
2023/04/30 09:31:47;;;;;;;21.45;13.38;;;;;;;19.37;100.00;100441.81;5000366;28;20050;-89
2023/04/30 09:34:13;;;;;;;21.33;12.85;;;;;;;19.14;100.00;100451.53;5007138;28;20865;-92
2023/04/30 09:36:54;;;;;;;19.80;11.48;;;;;;;18.92;100.00;100449.22;5003923;28;20507;-85
2023/04/30 09:39:20;;;;;;;22.38;11.23;;;;;;;18.98;100.00;100437.63;4987097;28;20038;-85
2023/04/30 09:41:46;;;;;;;18.00;10.98;;;;;;;19.06;100.00;100444.56;5022737;28;20617;-88
2023/04/30 09:44:28;;;;;;;17.20;10.98;;;;;;;19.13;100.00;100436.44;5004596;28;21030;-88
2023/04/30 09:46:55;;;;;;;;;;;;;;;19.12;100.00;100432.13;5023553;28;20042;-90
2023/04/30 09:49:20;;;;;;;17.88;10.00;;;;;;;19.38;100.00;100432.72;4983755;28;20409;-88
2023/04/30 09:51:56;;;;;;;21.42;10.90;;;;;;;19.63;100.00;100423.78;5005698;28;20034;-85
2023/04/30 09:54:26;;;;;;;16.48;9.85;;;;;;;19.68;100.00;100438.22;4987421;28;20038;-85
2023/04/30 09:57:00;;;;;;;20.90;10.95;;;;;;;19.48;100.00;100443.00;4993677;28;20050;-91
2023/04/30 09:59:34;;;;;;;19.65;11.43;;;;;;;20.00;100.00;100441.56;5014017;28;20040;-88
2023/04/30 10:02:06;;;;;;;17.35;10.73;;;;;;;19.67;100.00;100450.03;5017304;28;20057;-92
2023/04/30 10:04:39;;;;;;;;;;;;;;;19.83;100.00;100452.13;4999545;28;20133;-90
2023/04/30 10:07:09;;;;;;;18.05;11.15;;;;;;;19.81;100.00;100448.84;5021005;28;19944;-90
2023/04/30 10:09:40;;;;;;;18.92;10.82;;;;;;;19.77;100.00;100442.25;5005298;28;20042;-91
2023/04/30 10:12:13;;;;;;;17.40;11.27;;;;;;;19.42;100.00;100452.75;5008421;28;20030;-89
2023/04/30 10:14:46;;;;;;;19.08;11.73;;;;;;;19.23;100.00;100432.22;5022547;28;20046;-89
2023/04/30 10:17:15;;;;;;;19.92;11.02;;;;;;;19.24;100.00;100433.03;5001544;28;20038;-86
2023/04/30 10:19:47;;;;;;;20.33;12.18;;;;;;;19.22;100.00;100433.28;5017584;28;20427;-88
2023/04/30 10:22:13;;;;;;;18.02;10.20;;;;;;;19.26;100.00;100434.47;5019962;28;20066;-84
2023/04/30 10:24:42;;;;;;;20.77;11.35;;;;;;;19.07;100.00;100414.81;5018259;28;20053;-87
2023/04/30 10:50:19;;;;;;;14.75;9.07;;;;;;;18.98;100.00;100407.25;5080773;23;20053;-85
2023/04/30 11:09:12;;;;;;;14.35;7.82;;;;;;;19.05;100.00;100410.69;4436329;26;20054;-89
2023/04/30 11:11:38;;;;;;;17.50;8.13;;;;;;;18.99;100.00;100409.69;5001481;28;20038;-92
2023/04/30 11:14:03;;;;;;;13.13;6.95;;;;;;;19.09;100.00;100401.97;5000888;28;20434;-87
2023/04/30 11:16:30;;;;;;;14.52;8.50;;;;;;;19.07;100.00;100411.28;5000000;28;20038;-89
2023/04/30 11:19:05;;;;;;;14.15;7.80;;;;;;;19.09;100.00;100406.50;5000106;28;20120;-89
2023/04/30 11:21:32;;;;;;;15.63;7.57;;;;;;;18.94;100.00;100408.72;5002304;28;20092;-87
2023/04/30 11:24:11;;;;;;;13.70;7.68;;;;;;;18.67;100.00;100394.66;5007625;28;20046;-90
2023/04/30 11:27:14;;;;;;;13.73;7.95;;;;;;;18.76;100.00;100395.25;5012045;28;20090;-88
2023/04/30 11:29:50;;;;;;;18.83;8.90;;;;;;;18.82;100.00;100395.19;5006338;28;20061;-89
2023/04/30 11:32:44;;;;;;;12.10;7.97;;;;;;;18.87;100.00;100392.66;5000474;28;20041;-92
2023/04/30 11:35:10;;;;;;;16.50;7.93;;;;;;;18.83;100.00;100372.66;4981233;28;20053;-87
2023/04/30 11:37:38;;;;;;;13.73;8.52;;;;;;;18.81;100.00;100387.34;4985127;28;20078;-88
2023/04/30 11:40:06;;;;;;;14.73;8.20;;;;;;;19.01;100.00;100390.69;4982130;28;20031;-89
2023/04/30 11:43:10;;;;;;;17.08;8.30;;;;;;;18.80;100.00;100396.41;4998470;28;20063;-90
2023/04/30 11:45:38;;;;;;;17.27;8.25;;;;;;;18.73;100.00;100391.09;4998502;28;20050;-89
2023/04/30 11:48:05;;;;;;;14.80;9.35;;;;;;;18.53;100.00;100390.41;4998668;28;20034;-88
2023/04/30 11:50:32;;;;;;;19.90;9.13;;;;;;;18.64;100.00;100392.41;5017147;28;20031;-88
2023/04/30 11:53:02;;;;;;;17.33;9.05;;;;;;;18.66;100.00;100384.16;5018495;28;20015;-85
2023/04/30 11:55:28;;;;;;;17.05;9.27;;;;;;;18.57;100.00;100378.22;5018821;28;20043;-88